sensor_id;sensor_type;location;lat;lon;timestamp;pressure;altitude;pressure_sealevel;temperature;humidity
62694;BME280;48759;52.544;13.418;2023-02-11T00:00:58;102244.09;;;2.82;nan
62694;BME280;48759;52.544;13.418;2023-02-11T00:03:25;102258.50;;;3.18;nan
62694;BME280;48759;52.544;13.418;2023-02-11T00:05:58;102256.09;;;3.37;nan
62694;BME280;48759;52.544;13.418;2023-02-11T00:08:26;102262.50;;;3.25;nan
62694;BME280;48759;52.544;13.418;2023-02-11T00:10:54;102265.22;;;3.25;nan
62694;BME280;48759;52.544;13.418;2023-02-11T00:13:21;102272.44;;;3.37;nan
62694;BME280;48759;52.544;13.418;2023-02-11T00:15:48;102284.06;;;3.50;nan
62694;BME280;48759;52.544;13.418;2023-02-11T00:18:16;102292.91;;;3.30;nan
62694;BME280;48759;52.544;13.418;2023-02-11T00:20:42;102293.41;;;3.24;nan
62694;BME280;48759;52.544;13.418;2023-02-11T00:23:09;102298.53;;;3.04;nan
62694;BME280;48759;52.544;13.418;2023-02-11T00:25:39;102282.91;;;3.30;nan
62694;BME280;48759;52.544;13.418;2023-02-11T00:28:06;102265.66;;;3.07;nan
62694;BME280;48759;52.544;13.418;2023-02-11T00:30:33;102270.28;;;3.29;nan
62694;BME280;48759;52.544;13.418;2023-02-11T00:33:00;102245.72;;;3.53;nan
62694;BME280;48759;52.544;13.418;2023-02-11T00:35:27;102248.56;;;3.52;nan
62694;BME280;48759;52.544;13.418;2023-02-11T00:37:54;102246.72;;;3.52;nan
62694;BME280;48759;52.544;13.418;2023-02-11T00:40:22;102250.19;;;3.54;nan
62694;BME280;48759;52.544;13.418;2023-02-11T00:42:50;102258.59;;;3.84;nan
62694;BME280;48759;52.544;13.418;2023-02-11T00:45:17;102254.63;;;3.33;nan
62694;BME280;48759;52.544;13.418;2023-02-11T00:47:45;102253.13;;;3.73;nan
62694;BME280;48759;52.544;13.418;2023-02-11T00:50:11;102261.56;;;3.59;nan
62694;BME280;48759;52.544;13.418;2023-02-11T00:52:38;102270.72;;;3.69;nan
62694;BME280;48759;52.544;13.418;2023-02-11T00:55:06;102268.59;;;3.73;nan
62694;BME280;48759;52.544;13.418;2023-02-11T00:57:32;102264.41;;;3.80;nan
62694;BME280;48759;52.544;13.418;2023-02-11T01:00:01;102253.41;;;3.48;nan
62694;BME280;48759;52.544;13.418;2023-02-11T01:02:27;102242.00;;;3.65;nan
62694;BME280;48759;52.544;13.418;2023-02-11T01:04:54;102230.63;;;3.60;nan
62694;BME280;48759;52.544;13.418;2023-02-11T01:07:20;102219.09;;;3.79;nan
62694;BME280;48759;52.544;13.418;2023-02-11T01:09:47;102214.03;;;3.52;nan
62694;BME280;48759;52.544;13.418;2023-02-11T01:12:22;102206.59;;;3.65;nan
62694;BME280;48759;52.544;13.418;2023-02-11T01:14:50;102193.44;;;3.93;nan
62694;BME280;48759;52.544;13.418;2023-02-11T01:17:18;102176.66;;;3.76;nan
62694;BME280;48759;52.544;13.418;2023-02-11T01:19:45;102180.06;;;3.90;nan
62694;BME280;48759;52.544;13.418;2023-02-11T01:22:11;102173.84;;;3.44;nan
62694;BME280;48759;52.544;13.418;2023-02-11T01:24:38;102182.13;;;4.08;nan
62694;BME280;48759;52.544;13.418;2023-02-11T01:27:05;102184.97;;;3.64;nan
62694;BME280;48759;52.544;13.418;2023-02-11T01:29:31;102187.06;;;3.71;nan
62694;BME280;48759;52.544;13.418;2023-02-11T01:31:58;102168.00;;;3.60;nan
62694;BME280;48759;52.544;13.418;2023-02-11T01:34:26;102174.16;;;3.84;nan
62694;BME280;48759;52.544;13.418;2023-02-11T01:36:56;102177.41;;;3.67;nan
62694;BME280;48759;52.544;13.418;2023-02-11T01:39:26;102176.88;;;3.96;nan
62694;BME280;48759;52.544;13.418;2023-02-11T01:41:53;102177.09;;;4.04;nan
62694;BME280;48759;52.544;13.418;2023-02-11T01:44:24;102155.16;;;3.62;nan
62694;BME280;48759;52.544;13.418;2023-02-11T01:46:51;102154.16;;;4.38;nan
62694;BME280;48759;52.544;13.418;2023-02-11T01:49:21;102160.78;;;3.81;nan
62694;BME280;48759;52.544;13.418;2023-02-11T01:51:54;102166.59;;;4.20;nan
62694;BME280;48759;52.544;13.418;2023-02-11T01:54:24;102178.50;;;4.51;nan
62694;BME280;48759;52.544;13.418;2023-02-11T01:57:10;102177.78;;;4.17;nan
62694;BME280;48759;52.544;13.418;2023-02-11T02:00:05;102168.00;;;3.71;nan
62694;BME280;48759;52.544;13.418;2023-02-11T02:02:38;102158.56;;;3.75;nan
62694;BME280;48759;52.544;13.418;2023-02-11T02:05:12;102158.81;;;3.83;nan
62694;BME280;48759;52.544;13.418;2023-02-11T02:07:48;102150.19;;;3.67;nan
62694;BME280;48759;52.544;13.418;2023-02-11T02:10:20;102160.31;;;3.76;nan
62694;BME280;48759;52.544;13.418;2023-02-11T02:12:48;102163.66;;;3.69;nan
62694;BME280;48759;52.544;13.418;2023-02-11T02:15:24;102160.06;;;3.79;nan
62694;BME280;48759;52.544;13.418;2023-02-11T02:18:07;102159.72;;;4.37;nan
62694;BME280;48759;52.544;13.418;2023-02-11T02:27:22;102144.53;;;3.91;nan
62694;BME280;48759;52.544;13.418;2023-02-11T02:30:19;102139.09;;;3.91;nan
62694;BME280;48759;52.544;13.418;2023-02-11T02:35:46;102135.84;;;3.97;nan
62694;BME280;48759;52.544;13.418;2023-02-11T02:38:18;102139.66;;;4.06;nan
62694;BME280;48759;52.544;13.418;2023-02-11T02:40:49;102118.13;;;3.71;nan
62694;BME280;48759;52.544;13.418;2023-02-11T02:43:18;102124.88;;;3.88;nan
62694;BME280;48759;52.544;13.418;2023-02-11T02:45:46;102136.28;;;3.81;nan
62694;BME280;48759;52.544;13.418;2023-02-11T02:48:28;102121.34;;;4.08;nan
62694;BME280;48759;52.544;13.418;2023-02-11T02:51:05;102122.41;;;3.84;nan
62694;BME280;48759;52.544;13.418;2023-02-11T02:53:43;102123.41;;;3.83;nan
62694;BME280;48759;52.544;13.418;2023-02-11T02:56:23;102120.72;;;4.04;nan
62694;BME280;48759;52.544;13.418;2023-02-11T02:59:11;102106.78;;;3.55;nan
62694;BME280;48759;52.544;13.418;2023-02-11T03:01:48;102112.25;;;4.18;nan
62694;BME280;48759;52.544;13.418;2023-02-11T03:04:20;102109.31;;;4.10;nan
62694;BME280;48759;52.544;13.418;2023-02-11T03:06:54;102102.47;;;4.16;nan
62694;BME280;48759;52.544;13.418;2023-02-11T03:09:28;102101.03;;;3.80;nan
62694;BME280;48759;52.544;13.418;2023-02-11T03:11:57;102109.03;;;3.81;nan
62694;BME280;48759;52.544;13.418;2023-02-11T03:14:26;102110.22;;;4.00;nan
62694;BME280;48759;52.544;13.418;2023-02-11T03:16:57;102098.56;;;4.30;nan
62694;BME280;48759;52.544;13.418;2023-02-11T03:19:29;102095.38;;;4.45;nan
62694;BME280;48759;52.544;13.418;2023-02-11T03:21:57;102099.28;;;4.52;nan
62694;BME280;48759;52.544;13.418;2023-02-11T03:24:27;102097.69;;;4.29;nan
62694;BME280;48759;52.544;13.418;2023-02-11T03:26:57;102095.53;;;4.12;nan
62694;BME280;48759;52.544;13.418;2023-02-11T03:29:30;102091.66;;;4.26;nan
62694;BME280;48759;52.544;13.418;2023-02-11T03:32:04;102087.97;;;3.95;nan
62694;BME280;48759;52.544;13.418;2023-02-11T03:34:39;102093.22;;;4.07;nan
62694;BME280;48759;52.544;13.418;2023-02-11T03:37:12;102087.66;;;4.09;nan
62694;BME280;48759;52.544;13.418;2023-02-11T03:39:43;102097.72;;;3.97;nan
62694;BME280;48759;52.544;13.418;2023-02-11T03:42:13;102094.41;;;3.94;nan
62694;BME280;48759;52.544;13.418;2023-02-11T03:44:47;102092.06;;;4.42;nan
62694;BME280;48759;52.544;13.418;2023-02-11T03:47:18;102099.28;;;4.52;nan
62694;BME280;48759;52.544;13.418;2023-02-11T03:49:48;102090.84;;;4.55;nan
62694;BME280;48759;52.544;13.418;2023-02-11T03:52:19;102097.19;;;4.35;nan
62694;BME280;48759;52.544;13.418;2023-02-11T03:54:50;102096.31;;;4.35;nan
62694;BME280;48759;52.544;13.418;2023-02-11T03:57:18;102086.84;;;4.59;nan
62694;BME280;48759;52.544;13.418;2023-02-11T03:59:50;102087.94;;;4.47;nan
62694;BME280;48759;52.544;13.418;2023-02-11T04:02:17;102081.69;;;4.15;nan
62694;BME280;48759;52.544;13.418;2023-02-11T04:04:44;102094.63;;;4.43;nan
62694;BME280;48759;52.544;13.418;2023-02-11T04:07:12;102086.41;;;4.54;nan
62694;BME280;48759;52.544;13.418;2023-02-11T04:09:39;102083.94;;;4.51;nan
62694;BME280;48759;52.544;13.418;2023-02-11T04:12:06;102098.25;;;4.65;nan
62694;BME280;48759;52.544;13.418;2023-02-11T04:14:33;102087.41;;;4.74;nan
62694;BME280;48759;52.544;13.418;2023-02-11T04:17:00;102093.19;;;4.90;nan
62694;BME280;48759;52.544;13.418;2023-02-11T04:19:27;102091.69;;;4.77;nan
62694;BME280;48759;52.544;13.418;2023-02-11T04:21:53;102101.34;;;5.11;nan
62694;BME280;48759;52.544;13.418;2023-02-11T04:24:21;102087.03;;;4.68;nan
62694;BME280;48759;52.544;13.418;2023-02-11T04:26:48;102091.44;;;4.80;nan
62694;BME280;48759;52.544;13.418;2023-02-11T04:29:15;102090.19;;;4.63;nan
62694;BME280;48759;52.544;13.418;2023-02-11T04:31:41;102088.34;;;4.94;nan
62694;BME280;48759;52.544;13.418;2023-02-11T04:34:08;102092.19;;;4.61;nan
62694;BME280;48759;52.544;13.418;2023-02-11T04:36:35;102096.75;;;4.81;nan
62694;BME280;48759;52.544;13.418;2023-02-11T04:39:02;102088.38;;;4.52;nan
62694;BME280;48759;52.544;13.418;2023-02-11T04:41:30;102079.97;;;4.86;nan
62694;BME280;48759;52.544;13.418;2023-02-11T04:43:57;102074.44;;;4.67;nan
62694;BME280;48759;52.544;13.418;2023-02-11T04:46:23;102071.84;;;4.44;nan
62694;BME280;48759;52.544;13.418;2023-02-11T04:48:50;102082.88;;;4.22;nan
62694;BME280;48759;52.544;13.418;2023-02-11T04:51:17;102063.47;;;4.57;nan
62694;BME280;48759;52.544;13.418;2023-02-11T04:53:43;102070.44;;;4.29;nan
62694;BME280;48759;52.544;13.418;2023-02-11T04:56:10;102060.06;;;4.23;nan
62694;BME280;48759;52.544;13.418;2023-02-11T04:58:38;102059.19;;;4.64;nan
62694;BME280;48759;52.544;13.418;2023-02-11T05:01:05;102054.50;;;4.04;nan
62694;BME280;48759;52.544;13.418;2023-02-11T05:03:32;102047.59;;;4.41;nan
62694;BME280;48759;52.544;13.418;2023-02-11T05:05:59;102061.69;;;5.07;nan
62694;BME280;48759;52.544;13.418;2023-02-11T05:08:25;102047.97;;;4.88;nan
62694;BME280;48759;52.544;13.418;2023-02-11T05:10:52;102038.44;;;4.73;nan
62694;BME280;48759;52.544;13.418;2023-02-11T05:13:18;102043.22;;;4.59;nan
62694;BME280;48759;52.544;13.418;2023-02-11T05:15:46;102032.59;;;4.87;nan
62694;BME280;48759;52.544;13.418;2023-02-11T05:18:13;102023.50;;;4.77;nan
62694;BME280;48759;52.544;13.418;2023-02-11T05:20:40;102018.94;;;5.17;nan
62694;BME280;48759;52.544;13.418;2023-02-11T05:23:07;102014.34;;;4.47;nan
62694;BME280;48759;52.544;13.418;2023-02-11T05:25:33;102004.47;;;4.86;nan
62694;BME280;48759;52.544;13.418;2023-02-11T05:28:00;102003.91;;;4.92;nan
62694;BME280;48759;52.544;13.418;2023-02-11T05:30:27;102008.69;;;4.70;nan
62694;BME280;48759;52.544;13.418;2023-02-11T05:32:55;102001.44;;;4.49;nan
62694;BME280;48759;52.544;13.418;2023-02-11T05:35:22;102004.59;;;4.54;nan
62694;BME280;48759;52.544;13.418;2023-02-11T05:37:49;102000.78;;;4.36;nan
62694;BME280;48759;52.544;13.418;2023-02-11T05:40:16;102004.19;;;4.59;nan
62694;BME280;48759;52.544;13.418;2023-02-11T05:42:48;101995.50;;;4.44;nan
62694;BME280;48759;52.544;13.418;2023-02-11T05:45:15;101986.66;;;4.82;nan
62694;BME280;48759;52.544;13.418;2023-02-11T05:47:45;101985.78;;;4.82;nan
62694;BME280;48759;52.544;13.418;2023-02-11T05:50:16;101984.50;;;4.04;nan
62694;BME280;48759;52.544;13.418;2023-02-11T05:52:43;101993.44;;;4.57;nan
62694;BME280;48759;52.544;13.418;2023-02-11T05:55:09;101986.53;;;4.53;nan
62694;BME280;48759;52.544;13.418;2023-02-11T05:57:36;101992.03;;;4.63;nan
62694;BME280;48759;52.544;13.418;2023-02-11T06:00:04;101991.84;;;4.95;nan
62694;BME280;48759;52.544;13.418;2023-02-11T06:02:31;101997.53;;;4.73;nan
62694;BME280;48759;52.544;13.418;2023-02-11T06:04:58;102001.81;;;5.15;nan
62694;BME280;48759;52.544;13.418;2023-02-11T06:07:26;102011.16;;;5.13;nan
62694;BME280;48759;52.544;13.418;2023-02-11T06:09:53;102019.16;;;4.95;nan
62694;BME280;48759;52.544;13.418;2023-02-11T06:12:19;102015.47;;;5.15;nan
62694;BME280;48759;52.544;13.418;2023-02-11T06:14:46;102006.75;;;4.91;nan
62694;BME280;48759;52.544;13.418;2023-02-11T06:17:13;101997.56;;;4.82;nan
62694;BME280;48759;52.544;13.418;2023-02-11T06:19:42;102002.47;;;4.88;nan
62694;BME280;48759;52.544;13.418;2023-02-11T06:22:12;102011.69;;;5.07;nan
62694;BME280;48759;52.544;13.418;2023-02-11T06:24:41;101993.50;;;4.77;nan
62694;BME280;48759;52.544;13.418;2023-02-11T06:27:07;101997.91;;;5.08;nan
62694;BME280;48759;52.544;13.418;2023-02-11T06:29:45;101997.00;;;4.88;nan
62694;BME280;48759;52.544;13.418;2023-02-11T06:32:12;101995.41;;;4.86;nan
62694;BME280;48759;52.544;13.418;2023-02-11T06:34:39;101992.81;;;5.24;nan
62694;BME280;48759;52.544;13.418;2023-02-11T06:37:05;101979.22;;;5.44;nan
62694;BME280;48759;52.544;13.418;2023-02-11T06:39:33;101979.63;;;5.20;nan
62694;BME280;48759;52.544;13.418;2023-02-11T06:42:01;101982.25;;;5.00;nan
62694;BME280;48759;52.544;13.418;2023-02-11T06:44:28;101988.47;;;5.12;nan
62694;BME280;48759;52.544;13.418;2023-02-11T06:46:54;101979.97;;;5.15;nan
62694;BME280;48759;52.544;13.418;2023-02-11T06:49:21;101978.75;;;5.19;nan
62694;BME280;48759;52.544;13.418;2023-02-11T06:51:48;101999.75;;;5.28;nan
62694;BME280;48759;52.544;13.418;2023-02-11T06:54:14;101985.28;;;4.97;nan
62694;BME280;48759;52.544;13.418;2023-02-11T06:56:41;101997.75;;;5.00;nan
62694;BME280;48759;52.544;13.418;2023-02-11T06:59:13;101992.25;;;5.30;nan
62694;BME280;48759;52.544;13.418;2023-02-11T07:01:40;101999.22;;;5.04;nan
62694;BME280;48759;52.544;13.418;2023-02-11T07:04:09;101992.81;;;5.24;nan
62694;BME280;48759;52.544;13.418;2023-02-11T07:06:36;101989.34;;;5.13;nan
62694;BME280;48759;52.544;13.418;2023-02-11T07:09:03;101989.97;;;5.35;nan
62694;BME280;48759;52.544;13.418;2023-02-11T07:11:31;101979.06;;;5.35;nan
62694;BME280;48759;52.544;13.418;2023-02-11T07:14:00;101998.28;;;5.24;nan
62694;BME280;48759;52.544;13.418;2023-02-11T07:16:28;101980.16;;;5.23;nan
62694;BME280;48759;52.544;13.418;2023-02-11T07:18:55;101978.75;;;5.19;nan
62694;BME280;48759;52.544;13.418;2023-02-11T07:21:22;101967.25;;;5.25;nan
62694;BME280;48759;52.544;13.418;2023-02-11T07:23:50;101960.78;;;5.26;nan
62694;BME280;48759;52.544;13.418;2023-02-11T07:26:18;101965.97;;;5.39;nan
62694;BME280;48759;52.544;13.418;2023-02-11T07:28:46;101961.53;;;5.28;nan
62694;BME280;48759;52.544;13.418;2023-02-11T07:31:16;101964.25;;;5.19;nan
62694;BME280;48759;52.544;13.418;2023-02-11T07:33:44;101966.13;;;5.57;nan
62694;BME280;48759;52.544;13.418;2023-02-11T07:36:12;101954.34;;;5.56;nan
62694;BME280;48759;52.544;13.418;2023-02-11T07:38:39;101966.25;;;5.46;nan
62694;BME280;48759;52.544;13.418;2023-02-11T07:41:08;101954.06;;;5.59;nan
62694;BME280;48759;52.544;13.418;2023-02-11T07:43:36;101979.81;;;5.76;nan
62694;BME280;48759;52.544;13.418;2023-02-11T07:46:04;101963.25;;;5.49;nan
62694;BME280;48759;52.544;13.418;2023-02-11T07:48:31;101962.97;;;5.52;nan
62694;BME280;48759;52.544;13.418;2023-02-11T07:51:06;101969.28;;;5.43;nan
62694;BME280;48759;52.544;13.418;2023-02-11T07:53:33;101952.91;;;5.43;nan
62694;BME280;48759;52.544;13.418;2023-02-11T07:55:59;101963.97;;;5.70;nan
62694;BME280;48759;52.544;13.418;2023-02-11T07:58:26;101966.41;;;5.34;nan
62694;BME280;48759;52.544;13.418;2023-02-11T08:00:53;101971.47;;;5.68;nan
62694;BME280;48759;52.544;13.418;2023-02-11T08:03:19;101956.19;;;5.94;nan
62694;BME280;48759;52.544;13.418;2023-02-11T08:05:46;101964.69;;;5.82;nan
62694;BME280;48759;52.544;13.418;2023-02-11T08:08:14;101970.00;;;5.73;nan
62694;BME280;48759;52.544;13.418;2023-02-11T08:10:41;101969.44;;;5.51;nan
62694;BME280;48759;52.544;13.418;2023-02-11T08:13:07;101984.22;;;5.96;nan
62694;BME280;48759;52.544;13.418;2023-02-11T08:15:34;101999.31;;;5.62;nan
62694;BME280;48759;52.544;13.418;2023-02-11T08:18:01;102004.09;;;5.98;nan
62694;BME280;48759;52.544;13.418;2023-02-11T08:20:27;102002.94;;;5.72;nan
62694;BME280;48759;52.544;13.418;2023-02-11T08:22:56;102014.88;;;5.90;nan
62694;BME280;48759;52.544;13.418;2023-02-11T08:25:25;102008.25;;;5.45;nan
62694;BME280;48759;52.544;13.418;2023-02-11T08:27:51;102005.06;;;5.49;nan
62694;BME280;48759;52.544;13.418;2023-02-11T08:30:18;101996.31;;;5.65;nan
62694;BME280;48759;52.544;13.418;2023-02-11T08:32:45;102001.78;;;5.65;nan
62694;BME280;48759;52.544;13.418;2023-02-11T08:35:11;102008.69;;;5.59;nan
62694;BME280;48759;52.544;13.418;2023-02-11T08:37:38;102025.31;;;5.27;nan
62694;BME280;48759;52.544;13.418;2023-02-11T08:40:05;102011.41;;;5.78;nan
62694;BME280;48759;52.544;13.418;2023-02-11T08:42:33;102020.16;;;5.44;nan
62694;BME280;48759;52.544;13.418;2023-02-11T08:45:02;102023.31;;;5.49;nan
62694;BME280;48759;52.544;13.418;2023-02-11T08:47:29;102025.69;;;5.13;nan
62694;BME280;48759;52.544;13.418;2023-02-11T08:49:56;102022.28;;;5.21;nan
62694;BME280;48759;52.544;13.418;2023-02-11T08:52:22;101995.13;;;5.19;nan
62694;BME280;48759;52.544;13.418;2023-02-11T08:54:49;101986.81;;;5.50;nan
62694;BME280;48759;52.544;13.418;2023-02-11T08:57:16;101979.91;;;5.46;nan
62694;BME280;48759;52.544;13.418;2023-02-11T08:59:44;101977.75;;;5.88;nan
62694;BME280;48759;52.544;13.418;2023-02-11T09:02:12;101982.78;;;5.25;nan
62694;BME280;48759;52.544;13.418;2023-02-11T09:04:39;101977.91;;;5.48;nan
62694;BME280;48759;52.544;13.418;2023-02-11T09:07:06;101972.19;;;5.60;nan
62694;BME280;48759;52.544;13.418;2023-02-11T09:09:33;101981.81;;;5.45;nan
62694;BME280;48759;52.544;13.418;2023-02-11T09:12:00;101980.19;;;5.62;nan
62694;BME280;48759;52.544;13.418;2023-02-11T09:14:27;102003.78;;;5.63;nan
62694;BME280;48759;52.544;13.418;2023-02-11T09:16:55;102011.84;;;5.74;nan
62694;BME280;48759;52.544;13.418;2023-02-11T09:19:22;102009.66;;;5.49;nan
62694;BME280;48759;52.544;13.418;2023-02-11T09:21:48;102012.81;;;5.54;nan
62694;BME280;48759;52.544;13.418;2023-02-11T09:24:15;102007.50;;;5.43;nan
62694;BME280;48759;52.544;13.418;2023-02-11T09:26:42;102021.84;;;5.25;nan
62694;BME280;48759;52.544;13.418;2023-02-11T09:29:09;102020.19;;;5.53;nan
62694;BME280;48759;52.544;13.418;2023-02-11T09:31:36;102020.19;;;5.82;nan
62694;BME280;48759;52.544;13.418;2023-02-11T09:34:05;102024.06;;;5.51;nan
62694;BME280;48759;52.544;13.418;2023-02-11T09:36:33;102046.78;;;5.80;nan
62694;BME280;48759;52.544;13.418;2023-02-11T09:39:02;102030.94;;;5.35;nan
62694;BME280;48759;52.544;13.418;2023-02-11T09:41:39;102036.28;;;5.66;nan
62694;BME280;48759;52.544;13.418;2023-02-11T09:44:09;102036.56;;;5.63;nan
62694;BME280;48759;52.544;13.418;2023-02-11T09:46:46;102029.38;;;5.81;nan
62694;BME280;48759;52.544;13.418;2023-02-11T09:49:21;102037.44;;;5.83;nan
62694;BME280;48759;52.544;13.418;2023-02-11T09:51:51;102041.03;;;5.83;nan
62694;BME280;48759;52.544;13.418;2023-02-11T09:54:26;102060.16;;;5.93;nan
62694;BME280;48759;52.544;13.418;2023-02-11T09:56:54;102050.09;;;5.74;nan
62694;BME280;48759;52.544;13.418;2023-02-11T09:59:21;102064.75;;;5.73;nan
62694;BME280;48759;52.544;13.418;2023-02-11T10:01:50;102061.34;;;6.00;nan
62694;BME280;48759;52.544;13.418;2023-02-11T10:04:33;102056.41;;;5.94;nan
62694;BME280;48759;52.544;13.418;2023-02-11T10:07:06;102051.94;;;5.93;nan
62694;BME280;48759;52.544;13.418;2023-02-11T10:09:53;102054.72;;;5.83;nan
62694;BME280;48759;52.544;13.418;2023-02-11T10:12:32;102063.03;;;6.10;nan
62694;BME280;48759;52.544;13.418;2023-02-11T10:15:13;102054.72;;;5.83;nan
62694;BME280;48759;52.544;13.418;2023-02-11T10:17:50;102059.56;;;5.70;nan
62694;BME280;48759;52.544;13.418;2023-02-11T10:20:29;102051.97;;;6.12;nan
62694;BME280;48759;52.544;13.418;2023-02-11T10:22:59;102055.66;;;5.44;nan
62694;BME280;48759;52.544;13.418;2023-02-11T10:25:32;102055.09;;;5.50;nan
62694;BME280;48759;52.544;13.418;2023-02-11T10:28:00;102057.38;;;5.54;nan
62694;BME280;48759;52.544;13.418;2023-02-11T10:30:37;102056.50;;;5.34;nan
62694;BME280;48759;52.544;13.418;2023-02-11T10:33:13;102070.47;;;5.51;nan
62694;BME280;48759;52.544;13.418;2023-02-11T10:35:42;102071.53;;;5.69;nan
62694;BME280;48759;52.544;13.418;2023-02-11T10:38:10;102060.16;;;5.83;nan
62694;BME280;48759;52.544;13.418;2023-02-11T10:40:37;102056.97;;;6.16;nan
62694;BME280;48759;52.544;13.418;2023-02-11T10:43:05;102052.25;;;5.99;nan
62694;BME280;48759;52.544;13.418;2023-02-11T10:45:35;102037.56;;;6.29;nan
62694;BME280;48759;52.544;13.418;2023-02-11T10:48:05;102032.25;;;5.70;nan
62694;BME280;48759;52.544;13.418;2023-02-11T10:50:33;102040.03;;;6.03;nan
62694;BME280;48759;52.544;13.418;2023-02-11T10:53:15;102049.94;;;5.95;nan
62694;BME280;48759;52.544;13.418;2023-02-11T10:55:52;102049.38;;;6.01;nan
62694;BME280;48759;52.544;13.418;2023-02-11T10:58:24;102050.22;;;6.11;nan
62694;BME280;48759;52.544;13.418;2023-02-11T11:00:53;102046.78;;;5.80;nan
62694;BME280;48759;52.544;13.418;2023-02-11T11:03:22;102031.41;;;5.98;nan
62694;BME280;48759;52.544;13.418;2023-02-11T11:05:51;102030.22;;;6.10;nan
62694;BME280;48759;52.544;13.418;2023-02-11T11:08:19;102029.22;;;6.11;nan
62694;BME280;48759;52.544;13.418;2023-02-11T11:10:48;102033.09;;;6.28;nan
62694;BME280;48759;52.544;13.418;2023-02-11T11:13:30;102039.66;;;6.54;nan
62694;BME280;48759;52.544;13.418;2023-02-11T11:16:17;102041.63;;;6.06;nan
62694;BME280;48759;52.544;13.418;2023-02-11T11:18:45;102030.81;;;6.04;nan
62694;BME280;48759;52.544;13.418;2023-02-11T11:21:14;102017.88;;;6.16;nan
62694;BME280;48759;52.544;13.418;2023-02-11T11:23:49;102021.34;;;5.89;nan
62694;BME280;48759;52.544;13.418;2023-02-11T11:26:17;102007.81;;;5.78;nan
62694;BME280;48759;52.544;13.418;2023-02-11T11:28:51;102013.28;;;5.68;nan
62694;BME280;48759;52.544;13.418;2023-02-11T11:31:21;102015.44;;;5.74;nan
62694;BME280;48759;52.544;13.418;2023-02-11T11:33:50;102027.94;;;6.06;nan
62694;BME280;48759;52.544;13.418;2023-02-11T11:36:20;102027.09;;;6.05;nan
62694;BME280;48759;52.544;13.418;2023-02-11T11:38:52;102022.75;;;6.12;nan
62694;BME280;48759;52.544;13.418;2023-02-11T11:41:23;102024.50;;;6.13;nan
62694;BME280;48759;52.544;13.418;2023-02-11T11:43:55;102023.28;;;6.35;nan
62694;BME280;48759;52.544;13.418;2023-02-11T11:46:24;102025.94;;;5.89;nan
62694;BME280;48759;52.544;13.418;2023-02-11T11:48:57;102023.03;;;6.29;nan
62694;BME280;48759;52.544;13.418;2023-02-11T11:51:26;102026.22;;;6.14;nan
62694;BME280;48759;52.544;13.418;2023-02-11T11:53:59;102026.13;;;6.53;nan
62694;BME280;48759;52.544;13.418;2023-02-11T11:56:27;102025.31;;;6.33;nan
62694;BME280;48759;52.544;13.418;2023-02-11T11:58:55;102030.22;;;6.39;nan
62694;BME280;48759;52.544;13.418;2023-02-11T12:01:30;102023.41;;;6.53;nan
62694;BME280;48759;52.544;13.418;2023-02-11T12:04:34;102024.06;;;6.74;nan
62694;BME280;48759;52.544;13.418;2023-02-11T12:07:14;102009.59;;;6.91;nan
62694;BME280;48759;52.544;13.418;2023-02-11T12:09:53;102034.41;;;6.14;nan
62694;BME280;48759;52.544;13.418;2023-02-11T12:12:38;102013.97;;;6.84;nan
62694;BME280;48759;52.544;13.418;2023-02-11T12:15:16;102018.91;;;6.62;nan
62694;BME280;48759;52.544;13.418;2023-02-11T12:18:00;102023.81;;;6.58;nan
62694;BME280;48759;52.544;13.418;2023-02-11T12:20:37;102032.59;;;6.62;nan
62694;BME280;48759;52.544;13.418;2023-02-11T12:23:25;101998.56;;;6.64;nan
62694;BME280;48759;52.544;13.418;2023-02-11T12:26:01;102010.16;;;6.48;nan
62694;BME280;48759;52.544;13.418;2023-02-11T12:28:43;102017.72;;;6.64;nan
62694;BME280;48759;52.544;13.418;2023-02-11T12:31:38;102023.19;;;6.83;nan
62694;BME280;48759;52.544;13.418;2023-02-11T12:34:29;102031.78;;;6.88;nan
62694;BME280;48759;52.544;13.418;2023-02-11T12:37:06;102021.16;;;6.85;nan
62694;BME280;48759;52.544;13.418;2023-02-11T12:39:43;102045.22;;;6.72;nan
62694;BME280;48759;52.544;13.418;2023-02-11T12:42:28;102037.41;;;6.31;nan
62694;BME280;48759;52.544;13.418;2023-02-11T12:45:21;102028.38;;;6.11;nan
62694;BME280;48759;52.544;13.418;2023-02-11T12:47:59;102020.69;;;6.34;nan
62694;BME280;48759;52.544;13.418;2023-02-11T12:50:36;102029.28;;;6.58;nan
62694;BME280;48759;52.544;13.418;2023-02-11T12:53:32;102027.25;;;6.60;nan
62694;BME280;48759;52.544;13.418;2023-02-11T12:56:13;102038.63;;;6.75;nan
62694;BME280;48759;52.544;13.418;2023-02-11T12:58:46;102031.38;;;6.83;nan
62694;BME280;48759;52.544;13.418;2023-02-11T13:01:18;102031.28;;;6.75;nan
62694;BME280;48759;52.544;13.418;2023-02-11T13:03:49;102038.06;;;6.52;nan
62694;BME280;48759;52.544;13.418;2023-02-11T13:06:19;102040.34;;;6.57;nan
62694;BME280;48759;52.544;13.418;2023-02-11T13:08:49;102048.53;;;6.66;nan
62694;BME280;48759;52.544;13.418;2023-02-11T13:11:24;102052.03;;;6.49;nan
62694;BME280;48759;52.544;13.418;2023-02-11T13:13:56;102053.63;;;6.42;nan
62694;BME280;48759;52.544;13.418;2023-02-11T13:16:33;102044.41;;;6.62;nan
62694;BME280;48759;52.544;13.418;2023-02-11T13:19:05;102056.22;;;6.53;nan
62694;BME280;48759;52.544;13.418;2023-02-11T13:21:40;102029.34;;;6.39;nan
62694;BME280;48759;52.544;13.418;2023-02-11T13:24:24;102044.41;;;6.52;nan
62694;BME280;48759;52.544;13.418;2023-02-11T13:26:59;102041.94;;;6.59;nan
62694;BME280;48759;52.544;13.418;2023-02-11T13:29:36;102059.75;;;6.73;nan
62694;BME280;48759;52.544;13.418;2023-02-11T13:32:07;102064.72;;;6.50;nan
62694;BME280;48759;52.544;13.418;2023-02-11T13:34:56;102059.63;;;6.74;nan
62694;BME280;48759;52.544;13.418;2023-02-11T13:37:24;102073.63;;;6.62;nan